Time;durP1;ratioP1;P1;durP2;ratioP2;P2;SDS_P1;SDS_P2;PMS_P1;PMS_P2;Temp;Humidity;BMP_temperature;BMP_pressure;BME280_temperature;BME280_humidity;BME280_pressure;Samples;Min_cycle;Max_cycle;Signal;HPM_P1;HPM_P2
2021/04/12 00:01:57;;;;;;;2.40;2.20;;;;;;;;;;5026676;28;20626;-86
2021/04/12 00:04:46;;;;;;;2.63;2.42;;;;;;;;;;5028778;28;20048;-86
2021/04/12 00:07:54;;;;;;;4.33;3.33;;;;;;;;;;5031745;28;20387;-85
2021/04/12 00:10:43;;;;;;;2.80;2.10;;;;;;;;;;5026008;28;20792;-85
2021/04/12 00:13:38;;;;;;;2.15;1.95;;;;;;;;;;5031927;28;20528;-84
2021/04/12 00:16:42;;;;;;;3.50;2.08;;;;;;;;;;5030217;28;20499;-85
2021/04/12 00:19:31;;;;;;;3.22;2.47;;;;;;;;;;5016483;28;20029;-85
2021/04/12 00:22:20;;;;;;;2.47;2.28;;;;;;;;;;5015445;28;20049;-85
2021/04/12 00:25:13;;;;;;;2.60;2.03;;;;;;;;;;5031294;28;20048;-83
2021/04/12 00:28:02;;;;;;;8.00;2.70;;;;;;;;;;5028676;28;20108;-84
2021/04/12 00:30:51;;;;;;;2.50;2.30;;;;;;;;;;5030057;28;20131;-84
2021/04/12 00:33:39;;;;;;;4.07;2.25;;;;;;;;;;5030449;28;20487;-84
2021/04/12 00:36:33;;;;;;;4.57;3.10;;;;;;;;;;5029043;28;20025;-84
2021/04/12 00:39:37;;;;;;;3.40;2.63;;;;;;;;;;5028223;28;20122;-84
2021/04/12 00:42:22;;;;;;;3.42;2.70;;;;;;;;;;5027184;28;20523;-84
2021/04/12 00:45:10;;;;;;;6.75;3.83;;;;;;;;;;5030984;28;20104;-83
2021/04/12 00:47:56;;;;;;;3.63;2.47;;;;;;;;;;5028329;28;20655;-83
2021/04/12 00:50:53;;;;;;;3.38;2.97;;;;;;;;;;5032076;28;20048;-84
2021/04/12 00:54:02;;;;;;;3.67;2.97;;;;;;;;;;5029673;28;20037;-84
2021/04/12 00:57:03;;;;;;;5.15;2.75;;;;;;;;;;5029896;28;20049;-83
2021/04/12 00:59:48;;;;;;;2.72;2.22;;;;;;;;;;5036180;28;20123;-83
2021/04/12 01:02:33;;;;;;;4.55;3.35;;;;;;;;;;5027569;28;20356;-84
2021/04/12 01:05:27;;;;;;;3.33;2.65;;;;;;;;;;5034210;28;20799;-84
2021/04/12 01:08:22;;;;;;;5.03;4.05;;;;;;;;;;5032017;28;20492;-85
2021/04/12 01:11:16;;;;;;;6.07;3.67;;;;;;;;;;5035102;28;20088;-84
2021/04/12 01:14:20;;;;;;;6.53;3.47;;;;;;;;;;5030015;28;20032;-85
2021/04/12 01:17:14;;;;;;;3.03;2.70;;;;;;;;;;5032807;28;20047;-84
2021/04/12 01:20:18;;;;;;;4.55;3.85;;;;;;;;;;5033032;28;20044;-84
2021/04/12 01:23:22;;;;;;;3.55;3.10;;;;;;;;;;5032135;28;20021;-84
2021/04/12 01:26:26;;;;;;;3.90;2.90;;;;;;;;;;5033382;28;20695;-84
2021/04/12 01:29:30;;;;;;;5.55;3.67;;;;;;;;;;5030440;28;20021;-84
2021/04/12 01:32:22;;;;;;;4.68;3.60;;;;;;;;;;5034816;28;20088;-84
2021/04/12 01:35:28;;;;;;;4.32;3.50;;;;;;;;;;5027378;28;20651;-84
2021/04/12 01:38:22;;;;;;;6.90;4.75;;;;;;;;;;5030483;28;20032;-84
2021/04/12 01:41:24;;;;;;;4.85;4.00;;;;;;;;;;5019488;28;20360;-84
2021/04/12 01:44:19;;;;;;;5.00;4.00;;;;;;;;;;5026289;28;20095;-83
2021/04/12 01:47:16;;;;;;;3.80;3.40;;;;;;;;;;5032940;28;20487;-83
2021/04/12 01:50:20;;;;;;;6.10;4.35;;;;;;;;;;5030907;28;20096;-84
2021/04/12 01:53:25;;;;;;;4.60;3.70;;;;;;;;;;5032084;28;20017;-84
2021/04/12 01:56:29;;;;;;;3.80;3.40;;;;;;;;;;5034144;28;20040;-83
2021/04/12 01:59:33;;;;;;;4.63;3.70;;;;;;;;;;5031063;28;20025;-86
2021/04/12 02:02:37;;;;;;;8.18;4.50;;;;;;;;;;5030253;28;20580;-84
2021/04/12 02:05:22;;;;;;;5.13;4.03;;;;;;;;;;5028526;28;20032;-84
2021/04/12 02:08:30;;;;;;;5.32;4.30;;;;;;;;;;5028960;28;20058;-84
2021/04/12 02:11:34;;;;;;;6.78;4.68;;;;;;;;;;5012705;28;20052;-84
2021/04/12 02:14:55;;;;;;;6.13;4.43;;;;;;;;;;5032903;28;20262;-84
2021/04/12 02:17:49;;;;;;;5.88;4.72;;;;;;;;;;4947764;28;20032;-84
2021/04/12 02:20:54;;;;;;;5.30;4.13;;;;;;;;;;5022155;28;20063;-84
2021/04/12 02:23:43;;;;;;;6.10;4.20;;;;;;;;;;5032446;28;20033;-85
2021/04/12 02:26:28;;;;;;;5.30;3.60;;;;;;;;;;5029858;28;20414;-84
2021/04/12 02:29:19;;;;;;;5.53;3.90;;;;;;;;;;5033457;28;20444;-83
2021/04/12 02:32:20;;;;;;;5.85;4.20;;;;;;;;;;5028628;28;20138;-83
2021/04/12 02:35:20;;;;;;;4.13;3.72;;;;;;;;;;5033454;28;20387;-83
2021/04/12 02:38:24;;;;;;;6.22;4.57;;;;;;;;;;5046784;28;20105;-83
2021/04/12 02:41:12;;;;;;;6.60;5.13;;;;;;;;;;5028643;28;20029;-84
2021/04/12 02:44:19;;;;;;;5.40;4.13;;;;;;;;;;5030564;28;20036;-84
2021/04/12 02:47:22;;;;;;;5.95;4.28;;;;;;;;;;5044927;28;20155;-83
2021/04/12 02:50:22;;;;;;;6.53;4.72;;;;;;;;;;5031345;28;20428;-84
2021/04/12 02:53:25;;;;;;;7.50;4.85;;;;;;;;;;5030260;28;20028;-85
2021/04/12 02:56:49;;;;;;;7.32;5.43;;;;;;;;;;5031247;28;20040;-85
2021/04/12 02:59:43;;;;;;;5.78;4.70;;;;;;;;;;4970425;28;20123;-86
2021/04/12 03:02:28;;;;;;;7.00;5.07;;;;;;;;;;4968762;28;20528;-84
2021/04/12 03:05:17;;;;;;;6.57;4.50;;;;;;;;;;5024622;28;20098;-84
2021/04/12 03:08:20;;;;;;;6.82;4.68;;;;;;;;;;5027456;28;20106;-84
2021/04/12 03:11:32;;;;;;;7.57;5.53;;;;;;;;;;5032395;28;20670;-84
2021/04/12 03:14:20;;;;;;;5.78;4.45;;;;;;;;;;5015882;28;20079;-82
2021/04/12 03:17:15;;;;;;;9.10;5.20;;;;;;;;;;5030471;28;20028;-82
2021/04/12 03:20:10;;;;;;;6.10;4.47;;;;;;;;;;5030536;28;20186;-82
2021/04/12 03:23:18;;;;;;;6.28;4.00;;;;;;;;;;5030232;28;20044;-82
2021/04/12 03:26:22;;;;;;;7.20;4.90;;;;;;;;;;5030943;28;20103;-83
2021/04/12 03:29:28;;;;;;;5.07;4.10;;;;;;;;;;5043297;28;20117;-83
2021/04/12 03:32:16;;;;;;;5.18;4.35;;;;;;;;;;5031830;28;20028;-83
2021/04/12 03:35:15;;;;;;;8.77;5.10;;;;;;;;;;5031313;28;20427;-84
2021/04/12 03:38:10;;;;;;;6.35;4.40;;;;;;;;;;5029282;28;20134;-84
2021/04/12 03:41:06;;;;;;;6.82;4.97;;;;;;;;;;5042650;28;20112;-85
2021/04/12 03:43:55;;;;;;;6.15;4.30;;;;;;;;;;5030808;28;20044;-85
2021/04/12 03:46:59;;;;;;;6.70;5.05;;;;;;;;;;5030320;28;20037;-84
2021/04/12 03:49:54;;;;;;;6.70;4.60;;;;;;;;;;5028006;28;20433;-84
2021/04/12 03:52:47;;;;;;;4.63;3.95;;;;;;;;;;5030150;28;20446;-85
2021/04/12 03:55:41;;;;;;;7.25;4.80;;;;;;;;;;5029168;28;20482;-85
2021/04/12 03:58:33;;;;;;;9.48;5.28;;;;;;;;;;5030529;28;20036;-84
2021/04/12 04:01:41;;;;;;;8.05;5.22;;;;;;;;;;5026353;28;20028;-84
2021/04/12 04:04:35;;;;;;;7.45;5.38;;;;;;;;;;5025864;28;20167;-84
2021/04/12 04:07:26;;;;;;;7.40;4.85;;;;;;;;;;5031072;28;20423;-84
2021/04/12 04:10:14;;;;;;;8.35;5.32;;;;;;;;;;5029893;28;20036;-85
2021/04/12 04:13:18;;;;;;;7.57;5.53;;;;;;;;;;5031100;28;20021;-85
2021/04/12 04:16:11;;;;;;;9.68;6.05;;;;;;;;;;5025845;28;20112;-86
2021/04/12 04:19:22;;;;;;;8.80;6.38;;;;;;;;;;5029361;28;20060;-85
2021/04/12 04:22:14;;;;;;;8.23;5.00;;;;;;;;;;5017344;28;20033;-85
2021/04/12 04:25:05;;;;;;;8.52;5.28;;;;;;;;;;5026599;28;20041;-84
2021/04/12 04:27:50;;;;;;;8.10;5.97;;;;;;;;;;5014142;28;20025;-84
2021/04/12 04:30:44;;;;;;;9.70;7.20;;;;;;;;;;5020089;28;20028;-82
2021/04/12 04:33:30;;;;;;;10.95;6.57;;;;;;;;;;5044832;28;20077;-84
2021/04/12 04:36:34;;;;;;;9.07;6.53;;;;;;;;;;5034327;28;20017;-83
2021/04/12 04:39:38;;;;;;;9.18;6.50;;;;;;;;;;5032054;28;20527;-84
2021/04/12 04:42:38;;;;;;;9.27;6.07;;;;;;;;;;5038066;28;20375;-84
2021/04/12 04:45:32;;;;;;;7.72;5.70;;;;;;;;;;5017436;28;20033;-84
2021/04/12 04:48:29;;;;;;;7.60;5.53;;;;;;;;;;5036162;28;20056;-85
2021/04/12 04:51:17;;;;;;;10.93;7.32;;;;;;;;;;5034777;28;20602;-82
2021/04/12 04:54:21;;;;;;;7.47;5.20;;;;;;;;;;5036477;28;20087;-84
2021/04/12 04:57:25;;;;;;;7.60;4.97;;;;;;;;;;5032502;28;20132;-86
2021/04/12 05:00:29;;;;;;;7.13;4.75;;;;;;;;;;5038005;28;20119;-84
2021/04/12 05:03:33;;;;;;;5.88;3.95;;;;;;;;;;5020968;28;20025;-83
2021/04/12 05:06:43;;;;;;;5.68;4.43;;;;;;;;;;5034792;28;20123;-83
2021/04/12 05:09:32;;;;;;;8.05;5.03;;;;;;;;;;5032401;28;20029;-82
2021/04/12 05:12:26;;;;;;;6.50;4.95;;;;;;;;;;5034113;28;20024;-82
2021/04/12 05:15:24;;;;;;;6.47;4.57;;;;;;;;;;5035564;28;20052;-85
2021/04/12 05:18:12;;;;;;;5.30;3.92;;;;;;;;;;5030096;28;20025;-84
2021/04/12 05:20:57;;;;;;;6.38;5.00;;;;;;;;;;5016704;28;20017;-85
2021/04/12 05:23:49;;;;;;;6.82;4.95;;;;;;;;;;5035521;28;20025;-86
2021/04/12 05:26:35;;;;;;;8.85;6.18;;;;;;;;;;5040940;28;20045;-91
2021/04/12 05:29:39;;;;;;;6.50;5.25;;;;;;;;;;5042024;28;20048;-94
2021/04/12 05:32:24;;;;;;;10.25;7.13;;;;;;;;;;5035075;28;20070;-83
2021/04/12 05:35:17;;;;;;;8.73;7.03;;;;;;;;;;5022110;28;20013;-81
2021/04/12 05:38:30;;;;;;;8.63;6.65;;;;;;;;;;5035712;28;20025;-81
2021/04/12 05:41:24;;;;;;;5.60;4.78;;;;;;;;;;5030546;28;20402;-82
2021/04/12 05:44:12;;;;;;;6.60;5.22;;;;;;;;;;5028047;28;20028;-83
2021/04/12 05:47:16;;;;;;;5.95;4.82;;;;;;;;;;5013567;28;20253;-83
2021/04/12 05:50:11;;;;;;;5.43;4.07;;;;;;;;;;5017565;28;20018;-88
2021/04/12 05:52:56;;;;;;;6.38;4.72;;;;;;;;;;5022282;28;20021;-87
2021/04/12 05:55:45;;;;;;;7.30;4.47;;;;;;;;;;5028735;28;20025;-87
2021/04/12 05:59:03;;;;;;;13.85;10.98;;;;;;;;;;5028431;28;20053;-84
2021/04/12 06:02:08;;;;;;;10.90;6.68;;;;;;;;;;5006799;28;20033;-84
2021/04/12 06:05:01;;;;;;;9.15;6.05;;;;;;;;;;5030348;28;20039;-81
2021/04/12 06:07:59;;;;;;;10.20;7.72;;;;;;;;;;5030626;28;20095;-82
2021/04/12 06:10:47;;;;;;;11.40;7.47;;;;;;;;;;5022816;28;20396;-83
2021/04/12 06:13:41;;;;;;;8.52;6.60;;;;;;;;;;5019564;28;20017;-81
2021/04/12 06:16:30;;;;;;;10.88;7.22;;;;;;;;;;5018626;28;20123;-80
2021/04/12 06:19:15;;;;;;;11.20;7.22;;;;;;;;;;5029228;28;20029;-80
2021/04/12 06:22:00;;;;;;;9.88;6.25;;;;;;;;;;5033971;28;20028;-82
2021/04/12 06:25:12;;;;;;;10.02;7.35;;;;;;;;;;5029647;28;20037;-81
2021/04/12 06:28:00;;;;;;;10.73;6.47;;;;;;;;;;5034456;28;20053;-83
2021/04/12 06:31:05;;;;;;;11.52;7.35;;;;;;;;;;5029385;28;20103;-83
2021/04/12 06:33:50;;;;;;;12.95;8.38;;;;;;;;;;5031663;28;20023;-82
2021/04/12 06:36:35;;;;;;;10.93;8.40;;;;;;;;;;5028678;28;20044;-82
2021/04/12 06:39:56;;;;;;;10.05;7.05;;;;;;;;;;5029405;28;20025;-81
2021/04/12 06:43:00;;;;;;;10.25;7.45;;;;;;;;;;4933461;28;20031;-83
2021/04/12 06:45:48;;;;;;;10.63;7.53;;;;;;;;;;5026378;28;20044;-81
2021/04/12 06:48:43;;;;;;;12.43;8.77;;;;;;;;;;5019436;28;20105;-83
2021/04/12 06:51:37;;;;;;;11.68;8.00;;;;;;;;;;5027304;28;20008;-83
2021/04/12 06:54:41;;;;;;;11.75;8.57;;;;;;;;;;5027658;28;20017;-81
2021/04/12 06:57:26;;;;;;;10.63;7.80;;;;;;;;;;5024348;28;20349;-80
2021/04/12 07:00:44;;;;;;;10.07;7.07;;;;;;;;;;5032431;28;20082;-83
2021/04/12 07:03:48;;;;;;;11.73;8.07;;;;;;;;;;5031046;28;20036;-81
2021/04/12 07:06:42;;;;;;;24.17;16.40;;;;;;;;;;5029292;28;20090;-82
2021/04/12 07:09:43;;;;;;;11.55;8.27;;;;;;;;;;5030216;28;20021;-82
2021/04/12 07:12:40;;;;;;;11.63;7.32;;;;;;;;;;5027566;28;20026;-82
2021/04/12 07:15:44;;;;;;;11.32;6.93;;;;;;;;;;5032969;28;20498;-82
2021/04/12 07:18:42;;;;;;;12.18;8.48;;;;;;;;;;5017703;28;20182;-82
2021/04/12 07:21:30;;;;;;;11.88;7.63;;;;;;;;;;5028303;28;20384;-83
2021/04/12 07:24:34;;;;;;;11.73;8.05;;;;;;;;;;5027773;28;20024;-82
2021/04/12 07:27:40;;;;;;;12.82;7.88;;;;;;;;;;5028831;28;20539;-81
2021/04/12 07:30:58;;;;;;;12.90;9.15;;;;;;;;;;5030689;28;20025;-82
2021/04/12 07:34:02;;;;;;;13.60;8.73;;;;;;;;;;4989918;28;20032;-80
2021/04/12 07:37:06;;;;;;;13.15;10.00;;;;;;;;;;5017035;28;20037;-81
2021/04/12 07:40:10;;;;;;;14.38;9.43;;;;;;;;;;5026745;28;20020;-81
2021/04/12 07:43:14;;;;;;;12.85;9.23;;;;;;;;;;5026196;28;20025;-80
2021/04/12 07:46:04;;;;;;;13.88;9.65;;;;;;;;;;5027698;28;20032;-81
2021/04/12 07:49:09;;;;;;;22.27;13.32;;;;;;;;;;5030270;28;20396;-81
2021/04/12 07:52:22;;;;;;;16.40;12.07;;;;;;;;;;5028832;28;20029;-82
2021/04/12 07:55:26;;;;;;;13.63;9.65;;;;;;;;;;5030782;28;20036;-82
2021/04/12 07:58:30;;;;;;;14.88;11.13;;;;;;;;;;5024750;28;20051;-79
2021/04/12 08:01:21;;;;;;;14.27;11.18;;;;;;;;;;5023597;28;20029;-80
2021/04/12 08:04:24;;;;;;;17.33;12.32;;;;;;;;;;5029493;28;20028;-80
2021/04/12 08:07:29;;;;;;;17.08;12.05;;;;;;;;;;5030439;28;20044;-81
2021/04/12 08:10:34;;;;;;;15.75;10.73;;;;;;;;;;5028470;28;20037;-81
2021/04/12 08:13:39;;;;;;;17.33;11.35;;;;;;;;;;5033066;28;20025;-82
2021/04/12 08:16:31;;;;;;;15.68;11.50;;;;;;;;;;5031994;28;20048;-80
2021/04/12 08:19:34;;;;;;;17.63;11.50;;;;;;;;;;5025820;28;20021;-80
2021/04/12 08:22:24;;;;;;;16.20;11.93;;;;;;;;;;5029954;28;20159;-80
2021/04/12 08:25:24;;;;;;;16.35;11.63;;;;;;;;;;5029011;28;20502;-80
2021/04/12 08:28:28;;;;;;;15.30;10.82;;;;;;;;;;5031402;28;20036;-80
2021/04/12 08:31:24;;;;;;;16.40;11.70;;;;;;;;;;5020640;28;20028;-81
2021/04/12 08:34:26;;;;;;;15.55;11.05;;;;;;;;;;5024879;28;20021;-81
2021/04/12 08:37:38;;;;;;;17.45;12.18;;;;;;;;;;5014538;28;20033;-80
2021/04/12 08:40:23;;;;;;;14.98;10.23;;;;;;;;;;5013492;28;20034;-80
2021/04/12 08:43:14;;;;;;;17.38;12.13;;;;;;;;;;5028476;28;20120;-80
2021/04/12 08:46:05;;;;;;;21.08;14.10;;;;;;;;;;5024094;28;20498;-80
2021/04/12 08:49:09;;;;;;;14.27;11.23;;;;;;;;;;5016052;28;20336;-80
2021/04/12 08:52:20;;;;;;;15.95;10.27;;;;;;;;;;5028077;28;20036;-81
2021/04/12 08:55:12;;;;;;;16.45;10.18;;;;;;;;;;5020328;28;20053;-80
2021/04/12 08:58:16;;;;;;;14.07;9.00;;;;;;;;;;5023665;28;20135;-79
2021/04/12 09:01:31;;;;;;;14.18;10.45;;;;;;;;;;5025388;28;20048;-80
2021/04/12 09:04:36;;;;;;;15.73;9.02;;;;;;;;;;5022375;28;20045;-80
2021/04/12 09:07:40;;;;;;;13.52;8.40;;;;;;;;;;5026263;28;20044;-82
2021/04/12 09:10:45;;;;;;;15.05;9.25;;;;;;;;;;5029365;28;20036;-80
2021/04/12 09:13:53;;;;;;;13.43;9.15;;;;;;;;;;5029945;28;20434;-81
2021/04/12 09:16:45;;;;;;;12.82;8.25;;;;;;;;;;5027453;28;20116;-85
2021/04/12 09:19:36;;;;;;;11.38;7.88;;;;;;;;;;5033538;28;20025;-80
2021/04/12 09:22:25;;;;;;;14.23;7.78;;;;;;;;;;5024806;28;20052;-80
2021/04/12 09:25:29;;;;;;;10.05;6.57;;;;;;;;;;5032556;28;20024;-79
2021/04/12 09:28:33;;;;;;;10.98;7.15;;;;;;;;;;5030981;28;20637;-79
2021/04/12 09:31:37;;;;;;;20.30;8.00;;;;;;;;;;5015857;28;20071;-80
2021/04/12 09:34:34;;;;;;;11.52;6.28;;;;;;;;;;5030109;28;20033;-79
2021/04/12 09:37:38;;;;;;;10.70;5.85;;;;;;;;;;5030112;28;20025;-79
2021/04/12 09:40:23;;;;;;;11.68;6.80;;;;;;;;;;5033733;28;20028;-80
2021/04/12 09:43:25;;;;;;;10.10;6.50;;;;;;;;;;5022783;28;20040;-78
2021/04/12 09:46:24;;;;;;;9.27;5.90;;;;;;;;;;5030641;28;20025;-79
2021/04/12 09:49:38;;;;;;;10.73;6.90;;;;;;;;;;5027102;28;20616;-79
2021/04/12 09:52:43;;;;;;;21.45;14.23;;;;;;;;;;5020394;28;20112;-79
2021/04/12 09:55:46;;;;;;;9.93;6.20;;;;;;;;;;5025991;28;20016;-79
2021/04/12 09:58:52;;;;;;;11.02;6.20;;;;;;;;;;5027807;28;20104;-78
2021/04/12 10:01:56;;;;;;;8.82;4.10;;;;;;;;;;5031670;28;20025;-78
2021/04/12 10:05:00;;;;;;;7.30;4.65;;;;;;;;;;5027586;28;20086;-79
2021/04/12 10:07:51;;;;;;;6.55;4.60;;;;;;;;;;5027617;28;20025;-78
2021/04/12 10:10:58;;;;;;;6.70;4.30;;;;;;;;;;5033796;28;20382;-79
2021/04/12 10:14:10;;;;;;;7.70;4.72;;;;;;;;;;5028799;28;20113;-78
2021/04/12 10:17:05;;;;;;;8.25;4.38;;;;;;;;;;5030994;28;20025;-78
2021/04/12 10:19:54;;;;;;;8.45;5.03;;;;;;;;;;5016767;28;20071;-77
2021/04/12 10:22:53;;;;;;;6.18;3.55;;;;;;;;;;5033261;28;20036;-77
2021/04/12 10:25:43;;;;;;;7.20;4.22;;;;;;;;;;5027904;28;20107;-77
2021/04/12 10:28:48;;;;;;;5.88;3.33;;;;;;;;;;5028950;28;20101;-77
2021/04/12 10:31:37;;;;;;;5.85;3.80;;;;;;;;;;5028452;28;20036;-78
2021/04/12 10:34:36;;;;;;;4.78;3.08;;;;;;;;;;5026727;28;20442;-77
2021/04/12 10:37:27;;;;;;;5.80;2.70;;;;;;;;;;5028202;28;20027;-80
2021/04/12 10:40:16;;;;;;;4.97;2.70;;;;;;;;;;5027177;28;20029;-77
2021/04/12 10:43:05;;;;;;;7.65;3.25;;;;;;;;;;5022998;28;20055;-78
2021/04/12 10:45:50;;;;;;;6.05;3.25;;;;;;;;;;5026588;28;20052;-78
2021/04/12 10:48:47;;;;;;;4.85;2.90;;;;;;;;;;5032116;28;20205;-78
2021/04/12 10:51:38;;;;;;;3.65;2.97;;;;;;;;;;5029837;28;20102;-77
2021/04/12 10:54:43;;;;;;;6.38;3.05;;;;;;;;;;5029223;28;20105;-79
2021/04/12 10:57:34;;;;;;;8.15;3.45;;;;;;;;;;5026733;28;20041;-79
2021/04/12 11:00:19;;;;;;;4.43;2.63;;;;;;;;;;5021882;28;20084;-79
2021/04/12 11:03:04;;;;;;;6.55;3.20;;;;;;;;;;5031941;28;20021;-79
2021/04/12 11:06:12;;;;;;;5.70;3.00;;;;;;;;;;5028123;28;20035;-80
2021/04/12 11:09:10;;;;;;;4.53;3.10;;;;;;;;;;5025806;28;20060;-80
2021/04/12 11:12:08;;;;;;;7.80;2.92;;;;;;;;;;5023986;28;20024;-80
2021/04/12 11:14:58;;;;;;;5.80;2.90;;;;;;;;;;5030617;28;20049;-80
2021/04/12 11:17:48;;;;;;;10.50;3.75;;;;;;;;;;5029390;28;20063;-79
2021/04/12 11:20:43;;;;;;;5.75;3.00;;;;;;;;;;5026325;28;20029;-79
2021/04/12 11:23:34;;;;;;;6.28;2.78;;;;;;;;;;5028590;28;20444;-78
2021/04/12 11:26:25;;;;;;;5.10;2.92;;;;;;;;;;5029721;28;20116;-78
2021/04/12 11:29:19;;;;;;;5.20;2.38;;;;;;;;;;5028590;28;20112;-79
2021/04/12 11:32:04;;;;;;;6.13;2.58;;;;;;;;;;5029290;28;20443;-78
2021/04/12 11:34:50;;;;;;;5.47;2.65;;;;;;;;;;5032068;28;20025;-78
2021/04/12 11:37:51;;;;;;;6.75;3.13;;;;;;;;;;5029329;28;20037;-77
2021/04/12 11:40:38;;;;;;;6.93;3.08;;;;;;;;;;5029719;28;20059;-78
2021/04/12 11:43:27;;;;;;;4.47;2.53;;;;;;;;;;5027647;28;20120;-77
2021/04/12 11:46:18;;;;;;;6.90;3.17;;;;;;;;;;5028368;28;20444;-77
2021/04/12 11:49:03;;;;;;;6.35;2.67;;;;;;;;;;5030576;28;20448;-78
2021/04/12 11:51:48;;;;;;;6.88;2.80;;;;;;;;;;5028135;28;20033;-77
2021/04/12 11:54:52;;;;;;;9.05;3.60;;;;;;;;;;5031221;28;20098;-78
2021/04/12 11:57:37;;;;;;;4.28;2.30;;;;;;;;;;5025494;28;20045;-78
2021/04/12 12:00:28;;;;;;;4.25;2.10;;;;;;;;;;5028599;28;20052;-79
2021/04/12 12:03:36;;;;;;;4.32;2.10;;;;;;;;;;5021962;28;20014;-79
2021/04/12 12:06:39;;;;;;;6.10;2.53;;;;;;;;;;5026660;28;20035;-79
2021/04/12 12:09:36;;;;;;;3.20;2.10;;;;;;;;;;5025513;28;20430;-78
2021/04/12 12:12:29;;;;;;;4.35;2.30;;;;;;;;;;5029997;28;20025;-79
2021/04/12 12:15:23;;;;;;;6.32;2.30;;;;;;;;;;5043582;28;20035;-78
2021/04/12 12:18:17;;;;;;;5.18;2.50;;;;;;;;;;5040778;28;20514;-78
2021/04/12 12:21:13;;;;;;;4.95;2.30;;;;;;;;;;5030095;28;20037;-78
2021/04/12 12:23:59;;;;;;;6.03;2.58;;;;;;;;;;5020766;28;20037;-78
2021/04/12 12:26:49;;;;;;;4.35;2.50;;;;;;;;;;5027195;28;20550;-78
2021/04/12 12:29:45;;;;;;;6.55;2.70;;;;;;;;;;5027731;28;20246;-79
2021/04/12 12:32:35;;;;;;;4.22;2.30;;;;;;;;;;5018233;28;20028;-79
2021/04/12 12:35:34;;;;;;;5.50;2.50;;;;;;;;;;5025851;28;20032;-78
2021/04/12 12:38:28;;;;;;;3.22;2.10;;;;;;;;;;5030307;28;20028;-78
2021/04/12 12:41:19;;;;;;;6.80;3.70;;;;;;;;;;5032990;28;20079;-78
2021/04/12 12:44:09;;;;;;;7.05;3.63;;;;;;;;;;5025881;28;20491;-79
2021/04/12 12:46:54;;;;;;;3.25;1.80;;;;;;;;;;5029847;28;20083;-79
2021/04/12 12:49:44;;;;;;;5.03;2.13;;;;;;;;;;5027861;28;20162;-78
2021/04/12 12:52:36;;;;;;;4.65;1.70;;;;;;;;;;5032124;28;20025;-78
2021/04/12 12:55:25;;;;;;;3.33;1.60;;;;;;;;;;5030728;28;20374;-78
2021/04/12 12:58:18;;;;;;;2.00;1.60;;;;;;;;;;5033869;28;20102;-78
2021/04/12 13:01:07;;;;;;;4.45;1.77;;;;;;;;;;5030083;28;20438;-77
2021/04/12 13:03:53;;;;;;;6.95;2.00;;;;;;;;;;5025392;28;20064;-79
2021/04/12 13:06:40;;;;;;;3.38;1.77;;;;;;;;;;5026446;28;20090;-78
2021/04/12 13:09:28;;;;;;;3.63;1.50;;;;;;;;;;5032847;28;20079;-78
2021/04/12 13:12:14;;;;;;;2.75;1.55;;;;;;;;;;5032792;28;20105;-78
2021/04/12 13:15:15;;;;;;;3.80;1.63;;;;;;;;;;5028502;28;20033;-79
2021/04/12 13:18:09;;;;;;;2.35;1.27;;;;;;;;;;5035843;28;20445;-79
2021/04/12 13:21:06;;;;;;;5.45;1.80;;;;;;;;;;5031873;28;20116;-79
2021/04/12 13:23:53;;;;;;;6.03;1.63;;;;;;;;;;5029975;28;20029;-78
2021/04/12 13:26:59;;;;;;;4.47;1.92;;;;;;;;;;5030144;28;20103;-78
2021/04/12 13:29:47;;;;;;;2.55;1.65;;;;;;;;;;5032331;28;20024;-77
2021/04/12 13:32:34;;;;;;;3.25;1.83;;;;;;;;;;5026329;28;20025;-78
2021/04/12 13:35:21;;;;;;;9.80;4.38;;;;;;;;;;5032364;28;20063;-78
2021/04/12 13:38:12;;;;;;;6.32;2.80;;;;;;;;;;5030929;28;20025;-80
2021/04/12 13:41:14;;;;;;;4.75;2.08;;;;;;;;;;5031398;28;20052;-79
2021/04/12 13:44:07;;;;;;;3.22;1.73;;;;;;;;;;5031802;28;20400;-79
2021/04/12 13:47:09;;;;;;;2.55;1.60;;;;;;;;;;5026723;28;20032;-78
2021/04/12 13:49:59;;;;;;;6.95;1.70;;;;;;;;;;5033451;28;20702;-79
2021/04/12 13:53:04;;;;;;;4.93;2.13;;;;;;;;;;5029598;28;20052;-80
2021/04/12 13:55:52;;;;;;;2.90;1.50;;;;;;;;;;5047372;28;20037;-79
2021/04/12 13:58:59;;;;;;;6.68;2.35;;;;;;;;;;5030450;28;20017;-79
2021/04/12 14:01:56;;;;;;;5.30;1.90;;;;;;;;;;5027601;28;20084;-79
2021/04/12 14:04:43;;;;;;;4.32;1.90;;;;;;;;;;5014824;28;20017;-78
2021/04/12 14:07:28;;;;;;;3.90;1.60;;;;;;;;;;5009271;28;20487;-79
2021/04/12 14:10:20;;;;;;;4.70;1.73;;;;;;;;;;5030092;28;20234;-77
2021/04/12 14:13:11;;;;;;;6.55;1.75;;;;;;;;;;5028508;28;20024;-78
2021/04/12 14:16:00;;;;;;;8.20;2.20;;;;;;;;;;5031709;28;20018;-78
2021/04/12 14:18:47;;;;;;;4.45;1.55;;;;;;;;;;5030083;28;20046;-79
2021/04/12 14:21:34;;;;;;;1.73;1.30;;;;;;;;;;5029612;28;20041;-79
2021/04/12 14:24:35;;;;;;;3.97;2.08;;;;;;;;;;5027886;28;20551;-78
2021/04/12 14:27:20;;;;;;;2.22;1.33;;;;;;;;;;5027546;28;20041;-78
2021/04/12 14:30:13;;;;;;;2.30;1.50;;;;;;;;;;5024076;28;20021;-78
2021/04/12 14:33:03;;;;;;;3.80;1.77;;;;;;;;;;5029764;28;20025;-78
2021/04/12 14:35:49;;;;;;;3.35;1.90;;;;;;;;;;5029594;28;20740;-77
2021/04/12 14:38:37;;;;;;;4.70;2.10;;;;;;;;;;5030105;28;20028;-78
2021/04/12 14:41:27;;;;;;;5.55;2.30;;;;;;;;;;5031047;28;20039;-78
2021/04/12 14:44:28;;;;;;;6.65;2.22;;;;;;;;;;5028575;28;20025;-79
2021/04/12 14:47:13;;;;;;;5.55;2.22;;;;;;;;;;5030138;28;20029;-77
2021/04/12 14:50:02;;;;;;;7.05;2.33;;;;;;;;;;5029867;28;20075;-78
2021/04/12 14:52:47;;;;;;;6.55;2.80;;;;;;;;;;5030724;28;20024;-77
2021/04/12 14:55:40;;;;;;;13.95;8.82;;;;;;;;;;5027097;28;20060;-77
2021/04/12 14:58:30;;;;;;;5.90;2.45;;;;;;;;;;5029903;28;20112;-77
2021/04/12 15:01:17;;;;;;;7.70;2.05;;;;;;;;;;5023754;28;20047;-77
2021/04/12 15:04:06;;;;;;;2.95;1.67;;;;;;;;;;5031012;28;20029;-77
2021/04/12 15:06:57;;;;;;;3.63;1.77;;;;;;;;;;5029985;28;20234;-77
2021/04/12 15:09:52;;;;;;;4.30;2.08;;;;;;;;;;5029380;28;20033;-77
2021/04/12 15:12:38;;;;;;;3.03;1.90;;;;;;;;;;5023903;28;20021;-78
2021/04/12 15:15:33;;;;;;;4.60;2.17;;;;;;;;;;5030727;28;20044;-78
2021/04/12 15:18:27;;;;;;;3.30;1.90;;;;;;;;;;5031561;28;20029;-77
2021/04/12 15:21:12;;;;;;;4.85;2.10;;;;;;;;;;5024064;28;20033;-77
2021/04/12 15:24:04;;;;;;;2.58;1.80;;;;;;;;;;5029110;28;20108;-77
2021/04/12 15:26:51;;;;;;;5.10;2.35;;;;;;;;;;5028753;28;20399;-77
2021/04/12 15:30:03;;;;;;;5.65;3.17;;;;;;;;;;5029080;28;20021;-78
2021/04/12 15:33:02;;;;;;;8.63;4.72;;;;;;;;;;5026138;28;20028;-79
2021/04/12 15:35:53;;;;;;;9.80;4.88;;;;;;;;;;5033492;28;20116;-78
2021/04/12 15:38:42;;;;;;;6.78;1.98;;;;;;;;;;5030011;28;20033;-78
2021/04/12 15:41:31;;;;;;;3.90;1.83;;;;;;;;;;5028788;28;20479;-78
2021/04/12 15:44:29;;;;;;;4.43;2.00;;;;;;;;;;5030284;28;20107;-78
2021/04/12 15:47:15;;;;;;;6.35;2.30;;;;;;;;;;5029268;28;20029;-78
2021/04/12 15:50:25;;;;;;;4.45;1.80;;;;;;;;;;5019689;28;20017;-79
2021/04/12 15:53:17;;;;;;;2.80;1.80;;;;;;;;;;5019555;28;20033;-79
2021/04/12 15:56:21;;;;;;;7.35;2.33;;;;;;;;;;5030826;28;20040;-77
2021/04/12 15:59:09;;;;;;;6.72;2.55;;;;;;;;;;5032637;28;20087;-80
2021/04/12 16:01:54;;;;;;;3.72;1.67;;;;;;;;;;5026561;28;20036;-77
2021/04/12 16:05:06;;;;;;;4.47;2.20;;;;;;;;;;5028273;28;20154;-77
2021/04/12 16:07:54;;;;;;;6.30;2.20;;;;;;;;;;5002421;28;20127;-78
2021/04/12 16:10:39;;;;;;;4.30;1.40;;;;;;;;;;5027643;28;20055;-77
2021/04/12 16:13:24;;;;;;;4.10;1.83;;;;;;;;;;5029567;28;20032;-78
2021/04/12 16:16:13;;;;;;;5.68;1.92;;;;;;;;;;5031655;28;20036;-78
2021/04/12 16:19:01;;;;;;;3.63;1.83;;;;;;;;;;5029442;28;20025;-78
2021/04/12 16:21:49;;;;;;;5.78;2.05;;;;;;;;;;5029712;28;20094;-82
2021/04/12 16:24:39;;;;;;;4.47;2.08;;;;;;;;;;5025608;28;20040;-80
2021/04/12 16:27:30;;;;;;;5.28;1.80;;;;;;;;;;5026336;28;20108;-79
2021/04/12 16:30:21;;;;;;;2.55;1.67;;;;;;;;;;5027207;28;20108;-80
2021/04/12 16:33:09;;;;;;;3.50;1.95;;;;;;;;;;5027456;28;20108;-81
2021/04/12 16:36:06;;;;;;;6.22;1.98;;;;;;;;;;5020132;28;20065;-80
2021/04/12 16:38:54;;;;;;;4.15;1.77;;;;;;;;;;5029173;28;20079;-80
2021/04/12 16:41:42;;;;;;;1.90;1.70;;;;;;;;;;5030729;28;20037;-81
2021/04/12 16:44:30;;;;;;;2.95;2.10;;;;;;;;;;5028441;28;20029;-81
2021/04/12 16:47:17;;;;;;;3.72;1.60;;;;;;;;;;5026985;28;20117;-77
2021/04/12 16:50:12;;;;;;;6.20;1.95;;;;;;;;;;5028245;28;20426;-77
2021/04/12 16:52:59;;;;;;;5.75;1.80;;;;;;;;;;5029752;28;20048;-77
2021/04/12 16:55:52;;;;;;;4.60;1.83;;;;;;;;;;5026831;28;20025;-77
2021/04/12 16:58:42;;;;;;;3.38;1.48;;;;;;;;;;5021243;28;20033;-78
2021/04/12 17:01:53;;;;;;;4.47;1.80;;;;;;;;;;5030321;28;20064;-77
2021/04/12 17:04:52;;;;;;;4.45;1.67;;;;;;;;;;5026231;28;20115;-77
2021/04/12 17:07:45;;;;;;;2.75;1.65;;;;;;;;;;5030674;28;20075;-76
2021/04/12 17:10:48;;;;;;;3.75;1.58;;;;;;;;;;5022438;28;20052;-77
2021/04/12 17:13:38;;;;;;;3.20;1.50;;;;;;;;;;5029974;28;20040;-77
2021/04/12 17:16:27;;;;;;;3.50;1.73;;;;;;;;;;5027763;28;20029;-77
2021/04/12 17:19:18;;;;;;;3.10;1.73;;;;;;;;;;5029450;28;20483;-76
2021/04/12 17:22:12;;;;;;;5.63;1.77;;;;;;;;;;5033897;28;20373;-78
2021/04/12 17:25:03;;;;;;;3.22;1.48;;;;;;;;;;5029932;28;20098;-78
2021/04/12 17:27:57;;;;;;;5.53;1.95;;;;;;;;;;5025682;28;20187;-79